sensor_id;sensor_type;location;lat;lon;timestamp;pressure;altitude;pressure_sealevel;temperature;humidity
46303;BME280;32029;51.358;5.628;2023-05-20T00:00:22;102082.72;;;16.70;50.31
46303;BME280;32029;51.358;5.628;2023-05-20T00:02:48;102075.81;;;16.65;50.07
46303;BME280;32029;51.358;5.628;2023-05-20T00:05:15;102079.19;;;16.61;50.82
46303;BME280;32029;51.358;5.628;2023-05-20T00:07:42;102088.09;;;16.56;50.84
46303;BME280;32029;51.358;5.628;2023-05-20T00:10:09;102065.13;;;16.41;50.75
46303;BME280;32029;51.358;5.628;2023-05-20T00:12:39;102079.66;;;16.43;51.11
46303;BME280;32029;51.358;5.628;2023-05-20T00:15:06;102084.88;;;16.38;51.34
46303;BME280;32029;51.358;5.628;2023-05-20T00:17:33;102067.53;;;16.29;51.57
46303;BME280;32029;51.358;5.628;2023-05-20T00:20:00;102045.25;;;16.16;51.59
46303;BME280;32029;51.358;5.628;2023-05-20T00:22:26;102072.44;;;16.27;52.25
46303;BME280;32029;51.358;5.628;2023-05-20T00:24:53;102086.06;;;16.29;52.38
46303;BME280;32029;51.358;5.628;2023-05-20T00:27:20;102047.81;;;16.03;52.26
46303;BME280;32029;51.358;5.628;2023-05-20T00:29:46;102069.69;;;16.12;52.71
46303;BME280;32029;51.358;5.628;2023-05-20T00:32:13;101993.50;;;15.65;53.16
46303;BME280;32029;51.358;5.628;2023-05-20T00:34:42;102059.78;;;16.03;53.41
46303;BME280;32029;51.358;5.628;2023-05-20T00:37:08;102072.84;;;16.09;53.61
46303;BME280;32029;51.358;5.628;2023-05-20T00:39:35;102059.22;;;15.93;53.95
46303;BME280;32029;51.358;5.628;2023-05-20T00:42:02;102047.41;;;15.84;54.20
46303;BME280;32029;51.358;5.628;2023-05-20T00:44:29;102049.69;;;15.81;54.48
46303;BME280;32029;51.358;5.628;2023-05-20T00:46:55;102077.25;;;15.89;54.80
46303;BME280;32029;51.358;5.628;2023-05-20T00:49:22;102070.66;;;15.90;54.96
46303;BME280;32029;51.358;5.628;2023-05-20T00:51:49;102064.59;;;15.80;55.15
46303;BME280;32029;51.358;5.628;2023-05-20T00:54:16;102052.94;;;15.70;55.52
46303;BME280;32029;51.358;5.628;2023-05-20T00:56:43;102054.16;;;15.67;55.69
46303;BME280;32029;51.358;5.628;2023-05-20T00:59:10;102064.22;;;15.68;55.81
46303;BME280;32029;51.358;5.628;2023-05-20T01:01:37;102055.41;;;15.64;56.23
46303;BME280;32029;51.358;5.628;2023-05-20T01:04:03;102025.13;;;15.48;56.52
46303;BME280;32029;51.358;5.628;2023-05-20T01:06:30;102062.81;;;15.64;56.60
46303;BME280;32029;51.358;5.628;2023-05-20T01:08:57;102049.28;;;15.54;56.93
46303;BME280;32029;51.358;5.628;2023-05-20T01:11:47;102016.19;;;15.31;57.40
46303;BME280;32029;51.358;5.628;2023-05-20T01:14:17;102047.00;;;15.43;57.96
46303;BME280;32029;51.358;5.628;2023-05-20T01:16:45;102050.31;;;15.38;57.98
46303;BME280;32029;51.358;5.628;2023-05-20T01:19:26;102032.28;;;15.28;58.14
46303;BME280;32029;51.358;5.628;2023-05-20T01:22:01;102064.81;;;15.40;58.30
46303;BME280;32029;51.358;5.628;2023-05-20T01:24:28;102062.63;;;15.36;58.31
46303;BME280;32029;51.358;5.628;2023-05-20T01:26:55;102067.66;;;15.32;58.78
46303;BME280;32029;51.358;5.628;2023-05-20T01:29:24;102061.66;;;15.29;58.97
46303;BME280;32029;51.358;5.628;2023-05-20T01:31:52;102061.19;;;15.25;59.25
46303;BME280;32029;51.358;5.628;2023-05-20T01:34:20;102074.53;;;15.22;59.49
46303;BME280;32029;51.358;5.628;2023-05-20T01:36:48;102051.13;;;15.09;59.71
46303;BME280;32029;51.358;5.628;2023-05-20T01:39:16;102063.34;;;15.15;59.98
46303;BME280;32029;51.358;5.628;2023-05-20T01:41:45;102041.22;;;15.00;60.21
46303;BME280;32029;51.358;5.628;2023-05-20T01:44:13;102054.47;;;15.05;60.44
46303;BME280;32029;51.358;5.628;2023-05-20T01:46:39;102031.28;;;14.91;60.56
46303;BME280;32029;51.358;5.628;2023-05-20T01:49:06;102050.44;;;14.92;60.87
46303;BME280;32029;51.358;5.628;2023-05-20T01:51:33;102059.22;;;14.96;60.75
46303;BME280;32029;51.358;5.628;2023-05-20T01:54:00;102031.03;;;14.78;61.35
46303;BME280;32029;51.358;5.628;2023-05-20T01:56:27;102036.03;;;14.82;61.40
46303;BME280;32029;51.358;5.628;2023-05-20T01:58:53;102035.53;;;14.79;61.32
46303;BME280;32029;51.358;5.628;2023-05-20T02:01:23;102023.03;;;14.68;61.60
46303;BME280;32029;51.358;5.628;2023-05-20T02:03:50;102036.19;;;14.81;61.82
46303;BME280;32029;51.358;5.628;2023-05-20T02:06:16;102041.22;;;14.77;62.03
46303;BME280;32029;51.358;5.628;2023-05-20T02:08:43;102032.03;;;14.62;62.09
46303;BME280;32029;51.358;5.628;2023-05-20T02:11:10;101982.84;;;14.34;62.51
46303;BME280;32029;51.358;5.628;2023-05-20T02:13:37;102046.16;;;14.67;62.79
46303;BME280;32029;51.358;5.628;2023-05-20T02:16:04;102035.00;;;14.60;62.76
46303;BME280;32029;51.358;5.628;2023-05-20T02:18:31;102030.91;;;14.48;62.58
46303;BME280;32029;51.358;5.628;2023-05-20T02:21:01;102041.06;;;14.56;63.12
46303;BME280;32029;51.358;5.628;2023-05-20T02:23:30;102017.88;;;14.34;63.24
46303;BME280;32029;51.358;5.628;2023-05-20T02:25:56;102038.00;;;14.42;63.49
46303;BME280;32029;51.358;5.628;2023-05-20T02:28:23;102042.53;;;14.35;63.61
46303;BME280;32029;51.358;5.628;2023-05-20T02:30:50;102013.34;;;14.18;63.97
46303;BME280;32029;51.358;5.628;2023-05-20T02:33:17;102043.28;;;14.29;63.85
46303;BME280;32029;51.358;5.628;2023-05-20T02:35:44;102049.97;;;14.35;64.45
46303;BME280;32029;51.358;5.628;2023-05-20T02:38:11;102048.25;;;14.34;64.34
46303;BME280;32029;51.358;5.628;2023-05-20T02:40:38;102047.59;;;14.32;64.63
46303;BME280;32029;51.358;5.628;2023-05-20T02:43:05;102046.91;;;14.30;64.51
46303;BME280;32029;51.358;5.628;2023-05-20T02:45:31;102048.31;;;14.26;64.98
46303;BME280;32029;51.358;5.628;2023-05-20T02:47:58;102030.25;;;14.15;65.16
46303;BME280;32029;51.358;5.628;2023-05-20T02:50:25;102044.00;;;14.23;65.02
46303;BME280;32029;51.358;5.628;2023-05-20T02:52:52;102027.84;;;14.12;65.46
46303;BME280;32029;51.358;5.628;2023-05-20T02:55:18;102033.53;;;14.18;65.33
46303;BME280;32029;51.358;5.628;2023-05-20T02:57:45;102016.00;;;14.03;65.54
46303;BME280;32029;51.358;5.628;2023-05-20T03:00:12;101998.84;;;13.93;65.77
46303;BME280;32029;51.358;5.628;2023-05-20T03:02:39;102031.66;;;14.11;66.20
46303;BME280;32029;51.358;5.628;2023-05-20T03:05:05;102021.88;;;14.00;65.98
46303;BME280;32029;51.358;5.628;2023-05-20T03:07:33;102031.34;;;14.06;66.56
46303;BME280;32029;51.358;5.628;2023-05-20T03:10:01;102025.34;;;14.02;66.38
46303;BME280;32029;51.358;5.628;2023-05-20T03:12:29;102015.91;;;13.96;66.58
46303;BME280;32029;51.358;5.628;2023-05-20T03:14:56;101991.31;;;13.79;66.47
46303;BME280;32029;51.358;5.628;2023-05-20T03:17:24;102034.31;;;13.96;66.92
46303;BME280;32029;51.358;5.628;2023-05-20T03:19:50;102028.16;;;13.94;67.32
46303;BME280;32029;51.358;5.628;2023-05-20T03:22:17;102018.56;;;13.82;67.30
46303;BME280;32029;51.358;5.628;2023-05-20T03:24:44;102028.84;;;13.88;67.29
46303;BME280;32029;51.358;5.628;2023-05-20T03:27:11;101989.84;;;13.60;67.80
46303;BME280;32029;51.358;5.628;2023-05-20T03:29:38;102021.66;;;13.79;67.92
46303;BME280;32029;51.358;5.628;2023-05-20T03:32:05;102017.19;;;13.78;67.88
46303;BME280;32029;51.358;5.628;2023-05-20T03:34:32;102029.59;;;13.82;67.83
46303;BME280;32029;51.358;5.628;2023-05-20T03:36:59;102023.38;;;13.80;68.36
46303;BME280;32029;51.358;5.628;2023-05-20T03:39:26;102019.25;;;13.76;68.27
46303;BME280;32029;51.358;5.628;2023-05-20T03:41:52;102019.75;;;13.79;68.36
46303;BME280;32029;51.358;5.628;2023-05-20T03:44:19;102023.56;;;13.78;68.44
46303;BME280;32029;51.358;5.628;2023-05-20T03:46:46;102007.41;;;13.67;68.64
46303;BME280;32029;51.358;5.628;2023-05-20T03:49:13;102017.03;;;13.71;68.70
46303;BME280;32029;51.358;5.628;2023-05-20T03:51:39;101981.81;;;13.50;68.63
46303;BME280;32029;51.358;5.628;2023-05-20T03:54:06;102023.91;;;13.75;69.04
46303;BME280;32029;51.358;5.628;2023-05-20T03:56:33;102014.47;;;13.69;69.00
46303;BME280;32029;51.358;5.628;2023-05-20T03:58:59;102012.72;;;13.68;69.04
46303;BME280;32029;51.358;5.628;2023-05-20T04:01:26;102029.63;;;13.73;69.13
46303;BME280;32029;51.358;5.628;2023-05-20T04:03:53;102005.19;;;13.62;69.18
46303;BME280;32029;51.358;5.628;2023-05-20T04:06:20;102025.81;;;13.75;69.20
46303;BME280;32029;51.358;5.628;2023-05-20T04:08:47;102009.66;;;13.63;69.59
46303;BME280;32029;51.358;5.628;2023-05-20T04:11:15;102004.69;;;13.59;69.63
46303;BME280;32029;51.358;5.628;2023-05-20T04:13:42;102026.69;;;13.75;69.39
46303;BME280;32029;51.358;5.628;2023-05-20T04:16:09;102008.13;;;13.61;69.69
46303;BME280;32029;51.358;5.628;2023-05-20T04:18:35;102008.81;;;13.63;69.91
46303;BME280;32029;51.358;5.628;2023-05-20T04:21:04;102012.06;;;13.66;69.97
46303;BME280;32029;51.358;5.628;2023-05-20T04:23:31;102011.06;;;13.59;70.04
46303;BME280;32029;51.358;5.628;2023-05-20T04:25:58;102040.97;;;13.79;70.33
46303;BME280;32029;51.358;5.628;2023-05-20T04:28:27;102035.28;;;13.80;70.32
46303;BME280;32029;51.358;5.628;2023-05-20T04:31:00;102041.47;;;13.82;70.42
46303;BME280;32029;51.358;5.628;2023-05-20T04:33:30;102044.06;;;13.84;70.37
46303;BME280;32029;51.358;5.628;2023-05-20T04:35:58;102023.38;;;13.80;70.43
46303;BME280;32029;51.358;5.628;2023-05-20T04:38:27;102028.19;;;13.86;70.80
46303;BME280;32029;51.358;5.628;2023-05-20T04:40:55;102017.50;;;13.83;70.58
46303;BME280;32029;51.358;5.628;2023-05-20T04:43:25;102018.19;;;13.85;70.73
46303;BME280;32029;51.358;5.628;2023-05-20T04:45:56;102027.78;;;13.97;70.74
46303;BME280;32029;51.358;5.628;2023-05-20T04:48:23;102024.34;;;13.95;70.63
46303;BME280;32029;51.358;5.628;2023-05-20T04:50:50;102030.00;;;14.02;70.88
46303;BME280;32029;51.358;5.628;2023-05-20T04:53:17;102035.66;;;14.08;70.83
46303;BME280;32029;51.358;5.628;2023-05-20T04:55:45;101986.31;;;13.82;70.75
46303;BME280;32029;51.358;5.628;2023-05-20T04:58:12;101996.59;;;13.96;70.96
46303;BME280;32029;51.358;5.628;2023-05-20T05:00:41;102030.59;;;14.20;70.78
46303;BME280;32029;51.358;5.628;2023-05-20T05:03:08;101972.59;;;13.97;70.74
46303;BME280;32029;51.358;5.628;2023-05-20T05:05:35;102014.84;;;14.29;70.47
46303;BME280;32029;51.358;5.628;2023-05-20T05:08:03;102023.41;;;14.34;70.30
46303;BME280;32029;51.358;5.628;2023-05-20T05:10:29;102020.09;;;14.38;70.20
46303;BME280;32029;51.358;5.628;2023-05-20T05:12:56;101930.72;;;13.93;70.20
46303;BME280;32029;51.358;5.628;2023-05-20T05:15:23;102005.72;;;14.43;69.87
46303;BME280;32029;51.358;5.628;2023-05-20T05:17:50;102009.19;;;14.45;69.78
46303;BME280;32029;51.358;5.628;2023-05-20T05:20:17;102007.06;;;14.55;69.78
46303;BME280;32029;51.358;5.628;2023-05-20T05:22:44;102008.03;;;14.62;69.59
46303;BME280;32029;51.358;5.628;2023-05-20T05:25:11;101955.06;;;14.36;69.18
46303;BME280;32029;51.358;5.628;2023-05-20T05:27:38;101989.38;;;14.64;69.28
46303;BME280;32029;51.358;5.628;2023-05-20T05:30:06;102012.38;;;14.80;69.60
46303;BME280;32029;51.358;5.628;2023-05-20T05:32:33;102008.31;;;14.90;69.11
46303;BME280;32029;51.358;5.628;2023-05-20T05:35:00;102008.13;;;14.92;68.99
46303;BME280;32029;51.358;5.628;2023-05-20T05:37:27;101977.31;;;14.80;69.20
46303;BME280;32029;51.358;5.628;2023-05-20T05:39:53;102009.00;;;15.07;68.84
46303;BME280;32029;51.358;5.628;2023-05-20T05:42:20;102014.16;;;15.10;68.74
46303;BME280;32029;51.358;5.628;2023-05-20T05:44:47;102018.56;;;15.19;68.60
46303;BME280;32029;51.358;5.628;2023-05-20T05:47:14;102010.53;;;15.25;68.55
46303;BME280;32029;51.358;5.628;2023-05-20T05:49:41;101996.44;;;15.19;68.16
46303;BME280;32029;51.358;5.628;2023-05-20T05:52:07;102010.94;;;15.36;68.02
46303;BME280;32029;51.358;5.628;2023-05-20T05:54:34;102001.41;;;15.39;67.88
46303;BME280;32029;51.358;5.628;2023-05-20T05:57:01;101992.53;;;15.43;67.56
46303;BME280;32029;51.358;5.628;2023-05-20T05:59:27;101972.03;;;15.38;67.19
46303;BME280;32029;51.358;5.628;2023-05-20T06:01:54;101998.44;;;15.55;67.24
46303;BME280;32029;51.358;5.628;2023-05-20T06:04:21;101989.75;;;15.58;67.26
46303;BME280;32029;51.358;5.628;2023-05-20T06:06:47;101962.59;;;15.47;66.72
46303;BME280;32029;51.358;5.628;2023-05-20T06:09:14;101969.81;;;15.63;66.84
46303;BME280;32029;51.358;5.628;2023-05-20T06:11:41;101984.72;;;15.77;66.65
46303;BME280;32029;51.358;5.628;2023-05-20T06:14:09;101994.69;;;15.92;66.05
46303;BME280;32029;51.358;5.628;2023-05-20T06:16:36;101988.38;;;15.99;65.75
46303;BME280;32029;51.358;5.628;2023-05-20T06:19:03;101986.06;;;16.02;65.18
46303;BME280;32029;51.358;5.628;2023-05-20T06:21:31;101951.47;;;15.91;65.64
46303;BME280;32029;51.358;5.628;2023-05-20T06:23:58;101958.59;;;16.01;65.08
46303;BME280;32029;51.358;5.628;2023-05-20T06:26:24;101983.06;;;16.18;64.81
46303;BME280;32029;51.358;5.628;2023-05-20T06:28:51;101976.09;;;16.23;65.11
46303;BME280;32029;51.358;5.628;2023-05-20T06:31:18;101974.91;;;16.32;65.31
46303;BME280;32029;51.358;5.628;2023-05-20T06:33:45;101977.53;;;16.40;64.90
46303;BME280;32029;51.358;5.628;2023-05-20T06:36:12;101979.91;;;16.43;65.15
46303;BME280;32029;51.358;5.628;2023-05-20T06:38:38;101945.50;;;16.31;64.57
46303;BME280;32029;51.358;5.628;2023-05-20T06:41:05;101976.19;;;16.57;64.62
46303;BME280;32029;51.358;5.628;2023-05-20T06:43:32;101968.81;;;16.64;63.96
46303;BME280;32029;51.358;5.628;2023-05-20T06:45:59;101965.41;;;16.62;63.77
46303;BME280;32029;51.358;5.628;2023-05-20T06:48:25;101968.13;;;16.77;63.57
46303;BME280;32029;51.358;5.628;2023-05-20T06:50:52;101949.97;;;16.75;63.12
46303;BME280;32029;51.358;5.628;2023-05-20T06:53:19;101949.81;;;16.83;62.49
46303;BME280;32029;51.358;5.628;2023-05-20T06:55:45;101958.81;;;16.92;62.40
46303;BME280;32029;51.358;5.628;2023-05-20T06:58:12;101961.91;;;17.03;62.68
46303;BME280;32029;51.358;5.628;2023-05-20T07:00:39;101962.81;;;17.10;62.74
46303;BME280;32029;51.358;5.628;2023-05-20T07:03:06;101950.47;;;17.13;61.99
46303;BME280;32029;51.358;5.628;2023-05-20T07:05:32;101958.41;;;17.23;61.84
46303;BME280;32029;51.358;5.628;2023-05-20T07:07:59;101949.88;;;17.24;61.66
46303;BME280;32029;51.358;5.628;2023-05-20T07:10:26;101955.72;;;17.36;61.09
46303;BME280;32029;51.358;5.628;2023-05-20T07:12:52;101954.88;;;17.42;61.42
46303;BME280;32029;51.358;5.628;2023-05-20T07:15:19;101960.66;;;17.47;60.46
46303;BME280;32029;51.358;5.628;2023-05-20T07:17:46;101955.38;;;17.52;60.79
46303;BME280;32029;51.358;5.628;2023-05-20T07:20:12;101945.50;;;17.43;60.40
46303;BME280;32029;51.358;5.628;2023-05-20T07:22:39;101964.81;;;17.64;60.16
46303;BME280;32029;51.358;5.628;2023-05-20T07:25:06;101955.00;;;17.69;59.54
46303;BME280;32029;51.358;5.628;2023-05-20T07:27:33;101936.41;;;17.62;59.74
46303;BME280;32029;51.358;5.628;2023-05-20T07:30:00;101947.81;;;17.81;58.85
46303;BME280;32029;51.358;5.628;2023-05-20T07:32:26;101953.00;;;17.91;58.51
46303;BME280;32029;51.358;5.628;2023-05-20T07:34:53;101944.88;;;17.96;57.94
46303;BME280;32029;51.358;5.628;2023-05-20T07:37:20;101927.78;;;17.92;58.42
46303;BME280;32029;51.358;5.628;2023-05-20T07:39:46;101919.69;;;17.97;57.88
46303;BME280;32029;51.358;5.628;2023-05-20T07:42:13;101936.38;;;18.10;57.46
46303;BME280;32029;51.358;5.628;2023-05-20T07:44:40;101935.97;;;18.20;58.26
46303;BME280;32029;51.358;5.628;2023-05-20T07:47:06;101913.72;;;18.13;57.47
46303;BME280;32029;51.358;5.628;2023-05-20T07:49:33;101929.38;;;18.34;57.51
46303;BME280;32029;51.358;5.628;2023-05-20T07:52:00;101879.75;;;18.11;57.34
46303;BME280;32029;51.358;5.628;2023-05-20T07:54:26;101924.66;;;18.48;57.47
46303;BME280;32029;51.358;5.628;2023-05-20T07:56:53;101923.81;;;18.54;57.27
46303;BME280;32029;51.358;5.628;2023-05-20T07:59:20;101916.34;;;18.55;57.37
46303;BME280;32029;51.358;5.628;2023-05-20T08:01:46;101915.47;;;18.68;56.27
46303;BME280;32029;51.358;5.628;2023-05-20T08:04:13;101912.94;;;18.73;56.03
46303;BME280;32029;51.358;5.628;2023-05-20T08:06:40;101918.72;;;18.78;55.49
46303;BME280;32029;51.358;5.628;2023-05-20T08:09:08;101905.00;;;18.83;55.57
46303;BME280;32029;51.358;5.628;2023-05-20T08:11:35;101852.84;;;18.45;55.14
46303;BME280;32029;51.358;5.628;2023-05-20T08:14:02;101911.59;;;18.95;55.88
46303;BME280;32029;51.358;5.628;2023-05-20T08:16:28;101898.78;;;19.01;55.25
46303;BME280;32029;51.358;5.628;2023-05-20T08:18:55;101903.25;;;19.08;54.64
46303;BME280;32029;51.358;5.628;2023-05-20T08:21:22;101897.25;;;19.12;54.73
46303;BME280;32029;51.358;5.628;2023-05-20T08:23:48;101908.16;;;19.20;54.62
46303;BME280;32029;51.358;5.628;2023-05-20T08:26:15;101923.09;;;19.25;53.26
46303;BME280;32029;51.358;5.628;2023-05-20T08:28:42;101879.50;;;19.13;53.07
46303;BME280;32029;51.358;5.628;2023-05-20T08:31:08;101878.41;;;19.20;53.03
46303;BME280;32029;51.358;5.628;2023-05-20T08:33:36;101861.47;;;19.22;53.64
46303;BME280;32029;51.358;5.628;2023-05-20T08:36:02;101905.25;;;19.46;54.35
46303;BME280;32029;51.358;5.628;2023-05-20T08:38:29;101887.53;;;19.41;52.82
46303;BME280;32029;51.358;5.628;2023-05-20T08:40:56;101904.78;;;19.56;52.92
46303;BME280;32029;51.358;5.628;2023-05-20T08:43:23;101904.13;;;19.61;52.48
46303;BME280;32029;51.358;5.628;2023-05-20T08:45:50;101895.78;;;19.61;52.34
46303;BME280;32029;51.358;5.628;2023-05-20T08:48:23;101894.69;;;19.68;52.39
46303;BME280;32029;51.358;5.628;2023-05-20T08:50:51;101846.38;;;19.49;52.06
46303;BME280;32029;51.358;5.628;2023-05-20T08:53:21;101889.09;;;19.75;52.06
46303;BME280;32029;51.358;5.628;2023-05-20T08:55:52;101894.63;;;19.81;51.98
46303;BME280;32029;51.358;5.628;2023-05-20T08:58:20;101883.88;;;19.85;51.31
46303;BME280;32029;51.358;5.628;2023-05-20T09:00:48;101865.13;;;19.74;51.74
46303;BME280;32029;51.358;5.628;2023-05-20T09:03:15;101860.34;;;19.81;51.53
46303;BME280;32029;51.358;5.628;2023-05-20T09:05:42;101882.13;;;19.97;51.81
46303;BME280;32029;51.358;5.628;2023-05-20T09:08:10;101878.00;;;20.00;51.76
46303;BME280;32029;51.358;5.628;2023-05-20T09:10:40;101880.53;;;20.08;51.55
46303;BME280;32029;51.358;5.628;2023-05-20T09:13:08;101878.78;;;20.14;52.54
46303;BME280;32029;51.358;5.628;2023-05-20T09:15:36;101877.88;;;20.20;52.04
46303;BME280;32029;51.358;5.628;2023-05-20T09:18:04;101875.28;;;20.25;51.80
46303;BME280;32029;51.358;5.628;2023-05-20T09:20:34;101875.22;;;20.31;51.18
46303;BME280;32029;51.358;5.628;2023-05-20T09:23:07;101878.19;;;20.37;51.70
46303;BME280;32029;51.358;5.628;2023-05-20T09:25:35;101859.13;;;20.34;51.28
46303;BME280;32029;51.358;5.628;2023-05-20T09:28:08;101851.09;;;20.44;51.32
46303;BME280;32029;51.358;5.628;2023-05-20T09:30:35;101857.94;;;20.73;51.05
46303;BME280;32029;51.358;5.628;2023-05-20T09:33:03;101870.56;;;20.94;50.61
46303;BME280;32029;51.358;5.628;2023-05-20T09:35:34;101799.13;;;20.74;49.47
46303;BME280;32029;51.358;5.628;2023-05-20T09:38:04;101867.56;;;21.32;49.33
46303;BME280;32029;51.358;5.628;2023-05-20T09:40:33;101860.91;;;21.51;49.32
46303;BME280;32029;51.358;5.628;2023-05-20T09:43:06;101865.38;;;21.71;48.92
46303;BME280;32029;51.358;5.628;2023-05-20T09:45:33;101862.53;;;21.89;48.45
46303;BME280;32029;51.358;5.628;2023-05-20T09:48:00;101867.44;;;22.06;48.25
46303;BME280;32029;51.358;5.628;2023-05-20T09:50:28;101856.44;;;22.22;47.69
46303;BME280;32029;51.358;5.628;2023-05-20T09:52:55;101863.25;;;22.38;48.17
46303;BME280;32029;51.358;5.628;2023-05-20T09:55:27;101858.53;;;22.50;48.19
46303;BME280;32029;51.358;5.628;2023-05-20T09:57:53;101772.72;;;22.16;47.79
46303;BME280;32029;51.358;5.628;2023-05-20T10:00:21;101841.53;;;22.64;47.10
46303;BME280;32029;51.358;5.628;2023-05-20T10:02:51;101854.91;;;22.73;47.40
46303;BME280;32029;51.358;5.628;2023-05-20T10:05:24;101843.47;;;22.75;46.33
46303;BME280;32029;51.358;5.628;2023-05-20T10:08:04;101819.16;;;22.64;47.10
46303;BME280;32029;51.358;5.628;2023-05-20T10:16:25;101839.47;;;22.71;46.12
46303;BME280;32029;51.358;5.628;2023-05-20T10:19:14;101824.28;;;22.67;45.70
46303;BME280;32029;51.358;5.628;2023-05-20T10:21:55;101830.09;;;22.54;46.77
46303;BME280;32029;51.358;5.628;2023-05-20T10:24:31;101789.00;;;22.31;47.57
46303;BME280;32029;51.358;5.628;2023-05-20T10:27:01;101763.22;;;22.17;48.11
46303;BME280;32029;51.358;5.628;2023-05-20T10:29:29;101823.44;;;22.55;47.98
46303;BME280;32029;51.358;5.628;2023-05-20T10:31:56;101809.19;;;22.56;47.26
46303;BME280;32029;51.358;5.628;2023-05-20T10:34:22;101809.66;;;22.65;47.29
46303;BME280;32029;51.358;5.628;2023-05-20T10:39:25;101822.44;;;22.72;47.09
46303;BME280;32029;51.358;5.628;2023-05-20T10:41:58;101803.94;;;22.71;46.79
46303;BME280;32029;51.358;5.628;2023-05-20T10:44:40;101797.50;;;22.71;47.33
46303;BME280;32029;51.358;5.628;2023-05-20T10:47:06;101804.53;;;22.85;46.38
46303;BME280;32029;51.358;5.628;2023-05-20T10:49:33;101798.00;;;22.91;47.30
46303;BME280;32029;51.358;5.628;2023-05-20T10:52:01;101797.88;;;22.98;46.37
46303;BME280;32029;51.358;5.628;2023-05-20T10:54:34;101799.44;;;23.06;46.40
46303;BME280;32029;51.358;5.628;2023-05-20T10:57:05;101797.22;;;23.08;46.18
46303;BME280;32029;51.358;5.628;2023-05-20T10:59:35;101798.19;;;23.13;47.15
46303;BME280;32029;51.358;5.628;2023-05-20T11:02:02;101788.19;;;23.17;46.66
46303;BME280;32029;51.358;5.628;2023-05-20T11:04:30;101790.84;;;23.24;46.84
46303;BME280;32029;51.358;5.628;2023-05-20T11:06:58;101765.19;;;23.15;46.35
46303;BME280;32029;51.358;5.628;2023-05-20T11:09:24;101745.28;;;23.29;45.69
46303;BME280;32029;51.358;5.628;2023-05-20T11:11:52;101748.97;;;23.29;46.44
46303;BME280;32029;51.358;5.628;2023-05-20T11:14:20;101788.41;;;23.56;45.77
46303;BME280;32029;51.358;5.628;2023-05-20T11:16:51;101762.72;;;23.47;46.10
46303;BME280;32029;51.358;5.628;2023-05-20T11:19:19;101787.78;;;23.66;46.39
46303;BME280;32029;51.358;5.628;2023-05-20T11:21:46;101776.75;;;23.76;45.91
46303;BME280;32029;51.358;5.628;2023-05-20T11:24:20;101795.97;;;23.84;45.80
46303;BME280;32029;51.358;5.628;2023-05-20T11:26:47;101718.28;;;23.51;46.16
46303;BME280;32029;51.358;5.628;2023-05-20T11:29:14;101785.44;;;23.91;46.41
46303;BME280;32029;51.358;5.628;2023-05-20T11:31:40;101783.41;;;24.04;45.63
46303;BME280;32029;51.358;5.628;2023-05-20T11:34:08;101763.09;;;23.96;45.42
46303;BME280;32029;51.358;5.628;2023-05-20T11:36:40;101783.41;;;24.20;45.29
46303;BME280;32029;51.358;5.628;2023-05-20T11:39:08;101769.72;;;24.24;44.69
46303;BME280;32029;51.358;5.628;2023-05-20T11:41:35;101770.47;;;24.36;44.67
46303;BME280;32029;51.358;5.628;2023-05-20T11:44:02;101768.94;;;24.45;45.10
46303;BME280;32029;51.358;5.628;2023-05-20T11:46:29;101780.41;;;24.61;44.72
46303;BME280;32029;51.358;5.628;2023-05-20T11:48:56;101770.44;;;24.70;43.52
46303;BME280;32029;51.358;5.628;2023-05-20T11:51:28;101774.50;;;24.79;44.06
46303;BME280;32029;51.358;5.628;2023-05-20T11:54:02;101767.06;;;24.90;43.58
46303;BME280;32029;51.358;5.628;2023-05-20T11:56:29;101769.16;;;25.00;44.73
46303;BME280;32029;51.358;5.628;2023-05-20T11:58:58;101771.63;;;25.13;44.64
46303;BME280;32029;51.358;5.628;2023-05-20T12:01:26;101736.31;;;25.00;43.91
46303;BME280;32029;51.358;5.628;2023-05-20T12:03:55;101767.34;;;25.32;43.01
46303;BME280;32029;51.358;5.628;2023-05-20T12:06:22;101697.31;;;25.04;43.08
46303;BME280;32029;51.358;5.628;2023-05-20T12:08:49;101764.16;;;25.51;43.14
46303;BME280;32029;51.358;5.628;2023-05-20T12:11:16;101761.75;;;25.59;42.98
46303;BME280;32029;51.358;5.628;2023-05-20T12:13:43;101751.66;;;25.63;42.13
46303;BME280;32029;51.358;5.628;2023-05-20T12:16:10;101721.44;;;25.49;42.66
46303;BME280;32029;51.358;5.628;2023-05-20T12:18:36;101742.31;;;25.58;43.14
46303;BME280;32029;51.358;5.628;2023-05-20T12:21:03;101736.50;;;25.64;42.29
46303;BME280;32029;51.358;5.628;2023-05-20T12:23:31;101731.16;;;25.63;42.19
46303;BME280;32029;51.358;5.628;2023-05-20T12:25:59;101750.81;;;25.63;42.83
46303;BME280;32029;51.358;5.628;2023-05-20T12:28:26;101755.63;;;25.67;41.50
46303;BME280;32029;51.358;5.628;2023-05-20T12:30:53;101752.50;;;25.64;42.20
46303;BME280;32029;51.358;5.628;2023-05-20T12:33:19;101747.72;;;25.64;42.62
46303;BME280;32029;51.358;5.628;2023-05-20T12:35:46;101727.38;;;25.52;42.17
46303;BME280;32029;51.358;5.628;2023-05-20T12:38:13;101736.19;;;25.61;41.85
46303;BME280;32029;51.358;5.628;2023-05-20T12:40:40;101737.94;;;25.67;43.48
46303;BME280;32029;51.358;5.628;2023-05-20T12:43:06;101731.50;;;25.72;42.80
46303;BME280;32029;51.358;5.628;2023-05-20T12:45:33;101735.00;;;25.84;41.51
46303;BME280;32029;51.358;5.628;2023-05-20T12:48:00;101735.88;;;25.84;42.37
46303;BME280;32029;51.358;5.628;2023-05-20T12:50:27;101733.00;;;25.79;41.98
46303;BME280;32029;51.358;5.628;2023-05-20T12:52:54;101733.31;;;25.83;42.21
46303;BME280;32029;51.358;5.628;2023-05-20T12:55:21;101718.44;;;25.82;43.08
46303;BME280;32029;51.358;5.628;2023-05-20T12:57:48;101748.59;;;25.97;43.33
46303;BME280;32029;51.358;5.628;2023-05-20T13:00:15;101736.03;;;26.05;42.00